Terminal Aerodrome Forecast
Issued by NWS

Home | Current Version | Previous Version | Text Only | Print | Product List | Glossary On
Versions: 1 2 3 4 5 6 7 8 9 10 11 12 13 14 15 16 17 18 19 20 21 22 23
000
FTUS44 KLZK 052320
TAFLLQ
TAF
KLLQ 052320Z 0600/0624 06008KT 5SM BR VCSH OVC004
     FM060200 VRB06KT 2SM -SHRA BR VCTS OVC005CB
     FM060800 28006KT 2SM BR VCSH OVC005
     FM061200 31008KT 4SM -DZ BR BKN005 OVC015
     FM062100 35010KT P6SM SCT015 OVC100=

USA.gov is the U.S. government's official web portal to all federal, state and local government web resources and services.